Time;durP1;ratioP1;P1;durP2;ratioP2;P2;SDS_P1;SDS_P2;PMS_P1;PMS_P2;Temp;Humidity;BMP_temperature;BMP_pressure;BME280_temperature;BME280_humidity;BME280_pressure;Samples;Min_cycle;Max_cycle;Signal;HPM_P1;HPM_P2
2022/12/20 07:10:18;;;;;;;31.50;14.30;;;;;;;-4.07;100.00;102893.27;105084;1287;1002101;-58
2022/12/20 07:12:45;;;;;;;25.40;12.40;;;;;;;-1.85;93.24;102882.77;106283;1303;21957;-58
2022/12/20 09:28:01;;;;;;;46.20;26.60;;;;;;;1.01;100.00;102686.14;105145;1300;1002828;-59
2022/12/20 09:30:27;;;;;;;44.90;26.00;;;;;;;4.10;99.58;102656.71;106099;1301;21955;-59
2022/12/20 09:32:53;;;;;;;39.10;24.60;;;;;;;4.42;93.97;102649.27;106098;1303;21973;-59
2022/12/20 09:35:19;;;;;;;40.80;24.00;;;;;;;4.60;90.85;102643.56;106154;1298;21975;-59
2022/12/20 09:37:45;;;;;;;40.60;21.70;;;;;;;4.92;88.19;102629.05;106096;1303;21950;-60
2022/12/20 09:40:18;;;;;;;29.30;19.00;;;;;;;5.21;86.63;102624.98;105883;1303;358059;-59
2022/12/20 09:42:55;;;;;;;28.70;17.90;;;;;;;5.36;85.72;102616.96;106338;1300;21968;-59
2022/12/20 09:45:27;;;;;;;25.30;16.30;;;;;;;5.52;86.00;102607.39;106297;1298;21996;-60
2022/12/20 09:47:53;;;;;;;23.50;15.00;;;;;;;5.92;84.96;102596.05;106299;1302;21950;-61
2022/12/20 09:50:20;;;;;;;17.70;11.20;;;;;;;6.07;83.62;102591.48;106330;1301;21954;-60
2022/12/20 09:52:52;;;;;;;18.70;12.40;;;;;;;6.09;82.48;102588.25;106482;1302;21964;-60
2022/12/20 09:55:42;;;;;;;18.60;11.80;;;;;;;6.28;81.45;102583.60;106447;1302;22057;-60
2022/12/20 09:58:27;;;;;;;31.70;17.50;;;;;;;6.33;78.99;102576.17;106416;1300;21958;-60
2022/12/20 10:00:53;;;;;;;26.50;16.20;;;;;;;6.37;78.07;102572.84;106354;1302;22011;-60
2022/12/20 16:10:13;;;;;;;19.60;12.80;;;;;;;3.81;88.50;102076.94;105416;1313;21984;-59
2022/12/20 16:12:40;;;;;;;19.50;11.20;;;;;;;4.34;81.78;102072.15;105361;1313;21970;-59
2022/12/20 16:15:26;;;;;;;23.60;11.40;;;;;;;4.58;79.27;102070.17;105301;1311;21965;-59
2022/12/20 16:17:53;;;;;;;15.10;8.80;;;;;;;4.77;78.06;102062.54;105310;1307;21988;-59
2022/12/20 16:20:19;;;;;;;14.90;9.20;;;;;;;4.88;77.33;102059.30;105298;1307;328670;-59
2022/12/20 16:22:45;;;;;;;14.30;10.60;;;;;;;4.88;76.23;102055.65;105640;1307;22426;-58
2022/12/20 16:25:29;;;;;;;13.30;7.70;;;;;;;4.86;76.03;102049.84;105643;1305;21974;-58
2022/12/20 16:27:55;;;;;;;11.20;7.20;;;;;;;4.87;75.94;102046.75;105572;1309;21960;-59
2022/12/20 16:30:22;;;;;;;14.70;8.20;;;;;;;4.93;75.57;102044.72;105558;1304;22086;-59
2022/12/20 16:32:48;;;;;;;15.90;8.50;;;;;;;5.07;74.47;102039.66;105979;1309;21969;-59
2022/12/20 16:35:28;;;;;;;15.90;7.40;;;;;;;5.05;73.66;102035.08;105650;1302;22052;-58
2022/12/20 16:37:55;;;;;;;10.20;5.70;;;;;;;5.07;73.81;102032.88;105625;1309;21957;-59
2022/12/20 16:40:26;;;;;;;14.10;7.60;;;;;;;5.13;73.22;102031.56;105615;1309;21968;-60
2022/12/20 16:42:51;;;;;;;14.00;9.40;;;;;;;5.10;73.45;102028.84;105610;1309;21964;-60
2022/12/20 16:45:22;;;;;;;12.50;7.80;;;;;;;5.40;72.65;102023.64;105609;1307;21975;-60
2022/12/20 16:47:48;;;;;;;12.30;6.90;;;;;;;5.46;71.97;102022.27;105483;1301;21959;-59
2022/12/20 16:50:15;;;;;;;14.60;7.10;;;;;;;5.37;72.33;102018.65;105600;1309;22174;-60
2022/12/20 16:52:41;;;;;;;13.50;7.50;;;;;;;5.38;72.45;102016.75;105613;1308;22064;-58
2022/12/20 16:55:14;;;;;;;12.90;7.20;;;;;;;5.32;71.66;102016.91;105588;1308;21964;-58
2022/12/20 16:57:39;;;;;;;11.90;7.10;;;;;;;5.37;71.50;102016.38;105566;1310;22750;-59
2022/12/20 17:00:06;;;;;;;15.00;8.10;;;;;;;5.42;71.89;102013.94;105557;1309;21965;-59
2022/12/20 17:02:32;;;;;;;24.80;14.00;;;;;;;5.44;71.25;102014.01;105574;1308;21964;-59
2022/12/20 17:04:58;;;;;;;38.30;18.70;;;;;;;5.67;70.94;102013.21;105588;1307;22021;-59
2022/12/20 17:07:24;;;;;;;24.00;11.10;;;;;;;5.74;70.13;102015.55;105589;1307;21957;-59
2022/12/20 17:09:51;;;;;;;25.80;12.30;;;;;;;5.71;70.22;102016.86;105645;1309;22525;-58
2022/12/20 17:12:18;;;;;;;29.70;14.10;;;;;;;5.77;70.25;102016.36;105601;1309;21962;-58
2022/12/20 17:14:43;;;;;;;27.70;12.90;;;;;;;5.77;70.17;102016.17;105648;1308;21962;-59
2022/12/20 17:17:09;;;;;;;20.50;10.00;;;;;;;5.66;70.43;102013.92;105598;1309;21964;-58
2022/12/20 17:19:35;;;;;;;13.40;7.50;;;;;;;5.70;70.40;102014.55;105638;1307;22163;-58
2022/12/20 17:22:02;;;;;;;15.70;8.00;;;;;;;5.71;70.22;102019.63;105592;1307;21957;-58
2022/12/20 17:24:31;;;;;;;14.30;8.10;;;;;;;5.73;70.50;102021.80;105592;1308;21963;-58
2022/12/20 17:26:57;;;;;;;12.70;7.60;;;;;;;5.75;70.51;102018.55;105639;1307;21972;-58
2022/12/20 17:29:22;;;;;;;11.20;6.90;;;;;;;5.78;70.66;102019.36;105567;1307;22051;-58
2022/12/20 17:31:48;;;;;;;13.30;6.80;;;;;;;5.80;70.64;102014.89;105629;1308;21977;-58
2022/12/20 17:37:19;;;;;;;11.90;7.70;;;;;;;3.59;80.26;102017.65;105141;1310;548025;-66
2022/12/20 17:40:26;;;;;;;14.50;8.00;;;;;;;5.56;73.28;102005.04;105614;1312;21980;-60
2022/12/20 17:42:52;;;;;;;20.80;11.10;;;;;;;5.74;71.96;101994.33;105348;1312;21988;-60
2022/12/20 17:45:24;;;;;;;15.20;8.80;;;;;;;5.79;71.38;101986.81;105235;1313;22059;-60
2022/12/20 17:47:51;;;;;;;16.30;9.90;;;;;;;5.83;70.94;101978.77;104629;1312;1002972;-67
2022/12/20 17:50:16;;;;;;;26.60;12.00;;;;;;;5.82;70.54;101968.95;105375;1309;190912;-66
2022/12/20 17:52:45;;;;;;;17.60;8.80;;;;;;;5.80;70.30;101960.20;105621;1301;22743;-67
2022/12/20 17:55:19;;;;;;;13.70;6.80;;;;;;;5.82;70.50;101956.42;105625;1296;21992;-60
2022/12/20 17:57:51;;;;;;;16.90;7.60;;;;;;;5.84;70.47;101950.73;105650;1309;23132;-60
2022/12/20 18:00:31;;;;;;;13.80;7.80;;;;;;;5.88;69.95;101945.12;105613;1309;22175;-66
2022/12/20 18:03:03;;;;;;;14.20;8.80;;;;;;;5.88;69.72;101932.58;105575;1309;21986;-60
2022/12/20 18:05:33;;;;;;;15.00;8.50;;;;;;;5.87;69.33;101924.70;104877;1312;1002461;-60
2022/12/20 18:07:59;;;;;;;14.30;7.80;;;;;;;5.79;68.97;101917.65;105625;1310;23838;-60
2022/12/20 18:10:28;;;;;;;18.10;9.30;;;;;;;5.78;69.09;101915.52;104839;1309;1002308;-67
2022/12/20 18:12:57;;;;;;;15.00;8.20;;;;;;;5.82;69.16;101911.98;105641;1310;22763;-67
2022/12/20 18:15:25;;;;;;;15.40;8.60;;;;;;;5.83;69.02;101912.56;105581;1309;21972;-67
2022/12/20 18:17:57;;;;;;;24.50;10.80;;;;;;;5.87;69.05;101907.11;105575;1309;22217;-67
2022/12/20 18:20:27;;;;;;;14.10;8.00;;;;;;;5.88;69.25;101900.71;105616;1309;23073;-67
2022/12/20 18:22:53;;;;;;;15.60;8.30;;;;;;;5.88;69.01;101894.08;105581;1309;21990;-67
2022/12/20 18:25:19;;;;;;;22.80;10.40;;;;;;;5.86;68.79;101893.12;105616;1303;21966;-67
2022/12/20 18:27:44;;;;;;;17.90;9.20;;;;;;;5.83;68.46;101890.07;105645;1305;22012;-61
2022/12/20 18:30:11;;;;;;;34.20;12.60;;;;;;;5.87;68.38;101887.59;105652;1308;21978;-61
2022/12/20 18:32:38;;;;;;;20.40;8.40;;;;;;;5.86;68.18;101888.80;105728;1307;22013;-67
2022/12/20 18:35:06;;;;;;;24.60;10.70;;;;;;;5.93;68.11;101887.09;105634;1309;21967;-67
2022/12/20 18:37:33;;;;;;;55.60;18.70;;;;;;;5.94;68.26;101893.04;105607;1307;22345;-67
2022/12/20 18:39:58;;;;;;;46.80;16.80;;;;;;;5.95;68.20;101894.13;105678;1307;22113;-67
2022/12/20 18:42:26;;;;;;;22.50;8.90;;;;;;;5.96;68.05;101891.19;105587;1307;22010;-67
2022/12/20 18:44:56;;;;;;;23.40;9.50;;;;;;;5.99;67.97;101881.02;105672;1307;23880;-61
2022/12/20 18:47:23;;;;;;;22.40;8.60;;;;;;;6.11;67.95;101876.33;105646;1309;23142;-59
2022/12/20 18:49:51;;;;;;;17.50;8.40;;;;;;;6.02;67.67;101872.02;105710;1301;21986;-60
2022/12/20 18:52:17;;;;;;;17.40;10.30;;;;;;;5.95;67.90;101866.94;104969;1310;1003022;-61
2022/12/20 18:54:42;;;;;;;15.10;9.70;;;;;;;5.99;68.24;101856.79;105621;1307;21972;-67
2022/12/20 18:57:08;;;;;;;15.90;8.50;;;;;;;6.07;67.99;101849.55;104883;1309;1002416;-60
2022/12/20 18:59:34;;;;;;;18.00;8.40;;;;;;;6.08;67.61;101841.73;105605;1309;22185;-67
2022/12/20 19:02:00;;;;;;;20.00;10.20;;;;;;;6.13;67.71;101839.80;105650;1309;21981;-68
2022/12/20 19:04:28;;;;;;;24.50;13.60;;;;;;;6.14;67.66;101838.44;105598;1308;22035;-68
2022/12/20 19:06:56;;;;;;;16.60;9.00;;;;;;;6.16;67.65;101839.18;105688;1309;23874;-62
2022/12/20 19:09:26;;;;;;;12.20;8.40;;;;;;;6.19;67.39;101834.73;105674;1292;22131;-67
2022/12/20 19:11:56;;;;;;;12.50;6.30;;;;;;;6.31;67.22;101828.62;105613;1307;21981;-60
2022/12/20 19:14:24;;;;;;;15.90;7.10;;;;;;;6.27;67.22;101826.77;105725;1307;23771;-67
2022/12/20 19:16:54;;;;;;;11.00;5.40;;;;;;;6.29;67.35;101824.55;105711;1299;23079;-60
2022/12/20 19:19:23;;;;;;;12.80;6.00;;;;;;;6.27;67.40;101820.31;105616;1307;22040;-66
2022/12/20 19:21:52;;;;;;;11.60;6.10;;;;;;;6.28;67.22;101814.41;105638;1298;23828;-67
2022/12/20 19:24:18;;;;;;;12.20;6.50;;;;;;;6.25;66.95;101816.61;105588;1309;21987;-67
2022/12/20 19:26:48;;;;;;;13.90;7.60;;;;;;;6.28;66.48;101817.20;105772;1309;22065;-67
2022/12/20 19:29:29;;;;;;;12.30;6.70;;;;;;;6.32;66.07;101816.11;105723;1308;22239;-63
2022/12/20 19:31:57;;;;;;;23.80;11.30;;;;;;;6.32;65.72;101812.80;105609;1309;21965;-67
2022/12/20 19:34:26;;;;;;;18.40;9.50;;;;;;;6.37;65.54;101810.84;105770;1307;22442;-67
2022/12/20 19:36:57;;;;;;;15.20;8.30;;;;;;;6.34;65.12;101806.06;105738;1308;22790;-60
2022/12/20 19:39:29;;;;;;;15.40;8.50;;;;;;;6.38;65.15;101806.66;105613;1309;22035;-60
2022/12/20 19:45:05;;;;;;;14.60;8.40;;;;;;;6.47;64.99;101801.35;105575;1309;21969;-60
2022/12/20 19:47:34;;;;;;;14.30;7.10;;;;;;;6.51;64.65;101799.88;105727;1309;21959;-60
2022/12/20 19:49:59;;;;;;;14.80;8.00;;;;;;;6.58;64.36;101799.55;105636;1308;23166;-61
2022/12/20 19:52:28;;;;;;;13.30;6.10;;;;;;;6.64;64.18;101795.52;105629;1308;21966;-61
2022/12/20 19:54:56;;;;;;;11.30;5.60;;;;;;;6.60;63.41;101788.09;105854;1307;23082;-60
2022/12/20 19:57:24;;;;;;;13.40;6.80;;;;;;;6.60;63.26;101785.82;105660;1309;21966;-61
2022/12/20 19:59:50;;;;;;;18.70;8.10;;;;;;;6.68;63.28;101783.23;105670;1308;22075;-60
2022/12/20 20:02:21;;;;;;;15.00;7.40;;;;;;;6.65;63.15;101787.00;105556;1309;22005;-61
2022/12/20 20:04:48;;;;;;;17.70;7.60;;;;;;;6.73;63.42;101780.56;105735;1307;23536;-67
2022/12/20 20:07:22;;;;;;;11.40;5.40;;;;;;;6.74;63.17;101781.14;105607;1309;23160;-60
2022/12/20 20:09:51;;;;;;;11.00;5.10;;;;;;;6.74;63.21;101771.70;105653;1307;23032;-60
2022/12/20 20:12:18;;;;;;;14.30;6.80;;;;;;;6.79;63.52;101767.82;105576;1309;21979;-60
2022/12/20 20:14:47;;;;;;;17.60;8.40;;;;;;;6.82;63.49;101768.44;105661;1309;21967;-61
2022/12/20 20:17:16;;;;;;;14.20;6.90;;;;;;;6.80;63.76;101769.41;105674;1307;21969;-67
2022/12/20 20:19:47;;;;;;;17.40;7.90;;;;;;;6.77;63.58;101765.88;105635;1308;22030;-60
2022/12/20 20:22:14;;;;;;;20.40;7.80;;;;;;;6.75;63.30;101770.87;105643;1306;21960;-61
2022/12/20 20:24:42;;;;;;;17.00;7.40;;;;;;;6.79;63.40;101770.95;105641;1303;23129;-61
2022/12/20 20:27:09;;;;;;;21.70;9.50;;;;;;;6.74;63.09;101766.81;105687;1309;21982;-67
2022/12/20 20:29:37;;;;;;;29.50;9.20;;;;;;;6.79;63.29;101759.10;104874;1309;1002481;-66
2022/12/20 20:32:08;;;;;;;30.30;10.10;;;;;;;6.79;63.14;101748.46;105683;1305;23843;-59
2022/12/20 20:34:36;;;;;;;35.70;12.10;;;;;;;6.78;63.11;101738.67;105637;1309;21975;-65
2022/12/20 20:37:02;;;;;;;35.10;11.30;;;;;;;6.77;62.96;101736.39;105681;1307;21963;-59
2022/12/20 20:39:29;;;;;;;48.00;13.00;;;;;;;6.72;62.63;101728.23;105673;1308;21969;-65
2022/12/20 20:41:55;;;;;;;18.20;6.30;;;;;;;6.73;62.61;101727.21;105619;1307;21966;-66
2022/12/20 20:44:21;;;;;;;35.50;9.60;;;;;;;6.63;62.79;101725.21;105708;1307;21986;-66
2022/12/20 20:46:48;;;;;;;35.10;9.10;;;;;;;6.59;62.67;101721.45;105751;1308;23123;-62
2022/12/20 20:49:14;;;;;;;51.80;14.50;;;;;;;6.58;62.67;101723.69;105741;1308;21959;-60
2022/12/20 20:51:40;;;;;;;126.40;32.80;;;;;;;6.61;62.96;101731.77;105652;1308;21981;-68
2022/12/20 20:54:08;;;;;;;141.00;35.80;;;;;;;6.64;63.09;101732.20;105771;1309;22466;-66
2022/12/20 20:56:34;;;;;;;77.20;22.20;;;;;;;6.66;63.04;101734.71;105607;1308;23808;-66
2022/12/20 20:59:03;;;;;;;52.30;18.30;;;;;;;6.76;62.91;101728.85;105615;1308;22026;-59
2022/12/20 21:01:29;;;;;;;35.70;12.10;;;;;;;6.82;62.43;101727.61;105694;1308;22737;-59
2022/12/20 21:03:56;;;;;;;28.80;11.40;;;;;;;6.84;62.20;101731.48;105708;1307;21963;-66
2022/12/20 21:06:23;;;;;;;28.10;10.70;;;;;;;6.88;62.19;101734.36;105673;1309;21975;-65
2022/12/20 21:08:50;;;;;;;24.80;9.30;;;;;;;6.89;62.45;101734.73;105612;1309;21976;-60
2022/12/20 21:11:16;;;;;;;20.00;9.10;;;;;;;6.87;62.42;101735.38;105690;1308;21964;-64
2022/12/20 21:13:42;;;;;;;14.70;7.00;;;;;;;6.87;61.87;101739.05;105636;1309;21961;-66
2022/12/20 21:16:11;;;;;;;13.10;6.10;;;;;;;6.90;62.16;101739.14;105656;1306;21977;-59
2022/12/20 21:18:37;;;;;;;14.70;6.10;;;;;;;6.88;61.65;101736.64;105649;1306;23722;-66
2022/12/20 21:21:07;;;;;;;15.70;7.00;;;;;;;6.85;61.19;101732.91;105723;1305;21982;-58
2022/12/20 21:23:36;;;;;;;13.90;6.60;;;;;;;6.82;61.20;101726.38;105691;1306;21966;-67
2022/12/20 21:26:02;;;;;;;17.60;7.90;;;;;;;6.85;61.21;101723.48;104945;1306;1002432;-61
2022/12/20 21:28:28;;;;;;;49.90;15.70;;;;;;;6.87;61.13;101721.25;105634;1306;21981;-61
2022/12/20 21:31:00;;;;;;;78.10;22.10;;;;;;;6.93;61.31;101724.72;105629;1306;21979;-61
2022/12/20 21:33:27;;;;;;;56.00;18.40;;;;;;;6.98;61.61;101717.52;105737;1307;21967;-67
2022/12/20 21:36:03;;;;;;;50.90;17.90;;;;;;;6.99;61.82;101717.89;105714;1309;21982;-60
2022/12/20 21:38:30;;;;;;;42.80;16.30;;;;;;;7.00;61.32;101720.54;104956;1308;1002635;-62
2022/12/20 21:41:03;;;;;;;35.50;14.20;;;;;;;7.04;60.95;101721.83;105780;1307;21982;-61
2022/12/20 21:43:31;;;;;;;33.40;11.90;;;;;;;7.03;60.66;101719.90;105750;1306;21989;-67
2022/12/20 21:45:59;;;;;;;32.60;13.20;;;;;;;7.01;60.74;101722.66;105777;1306;23083;-68
2022/12/20 21:48:27;;;;;;;22.30;9.50;;;;;;;7.03;61.00;101727.23;105724;1307;21964;-59
2022/12/20 21:51:07;;;;;;;26.20;9.80;;;;;;;6.99;60.70;101725.04;105695;1308;23647;-66
2022/12/20 21:53:34;;;;;;;28.80;11.90;;;;;;;6.98;61.11;101728.15;105705;1309;23720;-66
2022/12/20 21:56:00;;;;;;;27.60;10.80;;;;;;;6.95;61.09;101723.38;105674;1306;21973;-65
2022/12/20 21:58:28;;;;;;;29.80;12.10;;;;;;;6.93;61.30;101716.51;105805;1308;21979;-60
2022/12/20 22:00:54;;;;;;;36.40;13.90;;;;;;;6.93;61.44;101711.82;105718;1307;23628;-59
2022/12/20 22:03:20;;;;;;;37.70;14.30;;;;;;;6.92;61.57;101708.29;105680;1305;21980;-59
2022/12/20 22:05:47;;;;;;;29.60;12.70;;;;;;;6.95;61.57;101706.10;105630;1306;22017;-65
2022/12/20 22:08:14;;;;;;;27.70;11.30;;;;;;;6.98;61.73;101699.20;105668;1307;21976;-59
2022/12/20 22:10:40;;;;;;;23.50;10.40;;;;;;;6.95;61.51;101688.11;105685;1306;23721;-66
2022/12/20 22:13:06;;;;;;;21.50;10.00;;;;;;;6.94;61.50;101681.11;104929;1306;1002973;-66
2022/12/20 22:15:32;;;;;;;21.40;8.50;;;;;;;6.99;61.26;101680.52;105609;1306;21975;-59
2022/12/20 22:17:58;;;;;;;15.70;7.60;;;;;;;7.05;60.97;101679.98;105684;1301;21988;-66
2022/12/20 22:20:23;;;;;;;21.10;9.40;;;;;;;7.10;61.22;101674.16;104908;1306;1002781;-59
2022/12/20 22:22:49;;;;;;;15.50;7.40;;;;;;;7.04;60.55;101668.96;105646;1306;21976;-66
2022/12/20 22:25:15;;;;;;;17.00;7.60;;;;;;;6.96;60.60;101660.95;105632;1302;21964;-68
2022/12/20 22:27:41;;;;;;;12.50;6.30;;;;;;;6.92;60.18;101660.65;105682;1305;22021;-67
2022/12/20 22:30:07;;;;;;;9.60;5.10;;;;;;;6.90;60.40;101658.16;105770;1306;22005;-59
2022/12/20 22:32:33;;;;;;;9.90;4.70;;;;;;;6.86;60.86;101657.38;105687;1305;21969;-66
2022/12/20 22:34:59;;;;;;;9.70;4.80;;;;;;;6.78;60.64;101644.80;105644;1306;21978;-66
2022/12/20 22:37:26;;;;;;;8.70;4.90;;;;;;;6.71;60.45;101636.79;105625;1306;22497;-60
2022/12/20 22:39:52;;;;;;;10.70;4.90;;;;;;;6.52;61.31;101630.05;105691;1304;21982;-60
2022/12/20 22:42:18;;;;;;;7.50;4.10;;;;;;;6.41;61.59;101625.25;105711;1306;21960;-66
2022/12/20 22:44:44;;;;;;;7.90;4.50;;;;;;;6.42;61.62;101619.17;104908;1306;1002396;-59
2022/12/20 22:47:09;;;;;;;7.70;4.40;;;;;;;6.41;61.95;101619.68;105627;1306;22009;-66
2022/12/20 22:49:38;;;;;;;9.30;4.80;;;;;;;6.60;61.56;101610.36;105651;1306;22000;-60
2022/12/20 22:52:05;;;;;;;12.10;5.40;;;;;;;6.65;61.06;101607.17;105681;1307;22015;-61
2022/12/20 22:54:33;;;;;;;10.30;5.00;;;;;;;6.67;61.16;101604.61;105666;1307;21968;-59
2022/12/20 22:57:00;;;;;;;8.60;4.90;;;;;;;6.69;61.03;101605.33;105674;1306;21969;-59
2022/12/20 22:59:29;;;;;;;7.70;4.10;;;;;;;6.67;60.79;101601.64;105584;1306;21980;-59
2022/12/20 23:01:55;;;;;;;8.80;4.80;;;;;;;6.71;60.77;101599.30;105714;1305;22000;-60
2022/12/20 23:04:22;;;;;;;10.50;5.50;;;;;;;6.80;60.50;101602.30;105621;1306;23100;-59
2022/12/20 23:06:48;;;;;;;14.50;5.30;;;;;;;6.79;60.23;101603.66;105598;1306;21963;-65
2022/12/20 23:09:24;;;;;;;11.30;5.50;;;;;;;6.79;60.01;101606.45;105638;1306;21980;-60
2022/12/20 23:17:36;;;;;;;12.00;6.60;;;;;;;6.90;59.36;101615.92;105677;1306;23057;-66
